Time;durP1;ratioP1;P1;durP2;ratioP2;P2;SDS_P1;SDS_P2;PMS_P1;PMS_P2;Temp;Humidity;BMP_temperature;BMP_pressure;BME280_temperature;BME280_humidity;BME280_pressure;Samples;Min_cycle;Max_cycle;Signal;HPM_P1;HPM_P2
2021/05/20 00:01:17;;;;;;;1.70;1.15;;;6.40;99.90;;;;;;4727795;30;20060;-83
2021/05/20 00:03:45;;;;;;;2.25;1.25;;;6.40;99.90;;;;;;4728192;30;20427;-86
2021/05/20 00:06:13;;;;;;;4.00;2.65;;;6.40;99.90;;;;;;4715236;30;20531;-83
2021/05/20 00:08:41;;;;;;;0.80;0.80;;;6.40;99.90;;;;;;4740706;30;20056;-83
2021/05/20 00:11:09;;;;;;;0.70;0.70;;;6.40;99.90;;;;;;4730507;30;20088;-82
2021/05/20 00:13:37;;;;;;;1.05;1.00;;;6.40;99.90;;;;;;4730781;30;20049;-82
2021/05/20 00:16:05;;;;;;;1.10;1.10;;;6.30;99.90;;;;;;4715141;30;20060;-82
2021/05/20 00:18:33;;;;;;;1.20;1.10;;;6.30;99.90;;;;;;4730562;30;20380;-83
2021/05/20 00:21:01;;;;;;;1.13;1.05;;;6.30;99.90;;;;;;4713708;30;20057;-83
2021/05/20 00:23:30;;;;;;;3.30;1.20;;;6.30;99.90;;;;;;4728299;30;20072;-81
2021/05/20 00:26:00;;;;;;;1.30;1.20;;;6.30;99.90;;;;;;4728392;30;20207;-84
2021/05/20 00:28:28;;;;;;;1.30;1.20;;;6.30;99.90;;;;;;4747961;30;20060;-81
2021/05/20 00:31:03;;;;;;;1.00;0.85;;;6.30;99.90;;;;;;4731105;30;20059;-83
2021/05/20 00:33:31;;;;;;;1.25;1.10;;;6.30;99.90;;;;;;4702381;30;20085;-81
2021/05/20 00:36:02;;;;;;;1.33;1.07;;;6.30;99.90;;;;;;4731709;30;20538;-82
2021/05/20 00:38:33;;;;;;;1.15;1.05;;;6.30;99.90;;;;;;4729838;30;20518;-83
2021/05/20 00:41:13;;;;;;;1.33;1.23;;;6.40;99.90;;;;;;4746868;30;20052;-83
2021/05/20 00:43:41;;;;;;;1.15;0.95;;;6.30;99.90;;;;;;4732407;30;20060;-82
2021/05/20 00:46:09;;;;;;;1.95;0.98;;;6.30;99.90;;;;;;4714538;30;20488;-82
2021/05/20 00:48:37;;;;;;;0.85;0.85;;;6.40;99.90;;;;;;4730008;30;20075;-82
2021/05/20 00:51:10;;;;;;;9.43;1.10;;;6.40;99.90;;;;;;4729154;30;20081;-85
2021/05/20 00:53:40;;;;;;;0.90;0.90;;;6.40;99.90;;;;;;4741155;30;20063;-83
2021/05/20 00:56:13;;;;;;;1.65;1.20;;;6.30;99.90;;;;;;4730054;30;20075;-83
2021/05/20 00:58:44;;;;;;;1.45;1.10;;;6.40;99.90;;;;;;4746187;30;20056;-82
2021/05/20 01:01:13;;;;;;;1.30;1.20;;;6.40;99.90;;;;;;4731232;30;20052;-84
2021/05/20 01:03:48;;;;;;;1.27;1.20;;;6.50;99.90;;;;;;4731897;30;20060;-84
2021/05/20 01:06:16;;;;;;;1.42;1.27;;;6.40;99.90;;;;;;4734134;30;20060;-84
2021/05/20 01:08:44;;;;;;;1.60;1.50;;;6.40;99.90;;;;;;4732886;30;20056;-85
2021/05/20 01:11:13;;;;;;;0.80;0.80;;;6.40;99.90;;;;;;4721124;30;20060;-82
2021/05/20 01:13:41;;;;;;;3.28;1.17;;;6.40;99.90;;;;;;4751385;30;20056;-82
2021/05/20 01:16:10;;;;;;;1.15;0.90;;;6.40;99.90;;;;;;4735688;30;20064;-85
2021/05/20 01:18:38;;;;;;;7.53;3.63;;;6.30;99.90;;;;;;4751674;30;20063;-84
2021/05/20 01:21:06;;;;;;;1.00;0.85;;;6.30;99.90;;;;;;4734248;30;20052;-85
2021/05/20 01:23:35;;;;;;;1.55;1.45;;;6.40;99.90;;;;;;4748000;30;20553;-82
2021/05/20 01:26:04;;;;;;;1.30;1.20;;;6.30;99.90;;;;;;4751484;30;20487;-85
2021/05/20 01:28:34;;;;;;;1.20;1.15;;;6.40;99.90;;;;;;4751050;30;20059;-82
2021/05/20 01:31:03;;;;;;;1.38;1.27;;;6.40;99.90;;;;;;4751114;30;20443;-82
2021/05/20 01:33:31;;;;;;;1.42;1.10;;;6.40;99.90;;;;;;4750397;30;20055;-83
2021/05/20 01:35:59;;;;;;;1.95;1.10;;;6.40;99.90;;;;;;4732600;30;20065;-83
2021/05/20 01:41:03;;;;;;;1.83;1.73;;;6.40;99.90;;;;;;4732962;30;20523;-82
2021/05/20 01:43:32;;;;;;;2.05;1.77;;;6.40;99.90;;;;;;4734298;30;20064;-83
2021/05/20 01:46:00;;;;;;;1.67;1.58;;;6.30;99.90;;;;;;4733064;30;20048;-83
2021/05/20 01:48:30;;;;;;;1.15;1.15;;;6.30;99.90;;;;;;4735617;30;20048;-83
2021/05/20 01:51:10;;;;;;;0.98;0.98;;;6.30;99.90;;;;;;4733971;30;20071;-83
2021/05/20 01:53:40;;;;;;;1.30;1.13;;;6.30;99.90;;;;;;4746986;30;20048;-85
2021/05/20 01:56:09;;;;;;;1.10;1.00;;;6.30;99.90;;;;;;4749879;30;20064;-84
2021/05/20 01:58:38;;;;;;;1.27;1.00;;;6.30;99.90;;;;;;4750024;30;20510;-85
2021/05/20 02:01:06;;;;;;;1.40;1.30;;;6.30;99.90;;;;;;4749910;30;20056;-84
2021/05/20 02:03:36;;;;;;;1.35;1.25;;;6.20;99.90;;;;;;4735234;30;20306;-85
2021/05/20 02:06:08;;;;;;;1.10;1.10;;;6.20;99.90;;;;;;4731875;30;20507;-84
2021/05/20 02:08:38;;;;;;;1.35;0.90;;;6.20;99.90;;;;;;4730544;30;20052;-86
2021/05/20 02:11:07;;;;;;;1.65;1.55;;;6.20;99.90;;;;;;4732013;30;20065;-86
2021/05/20 02:13:36;;;;;;;1.85;1.75;;;6.30;99.90;;;;;;4732274;30;20432;-85
2021/05/20 02:16:05;;;;;;;2.28;1.25;;;6.30;99.90;;;;;;4731364;30;20521;-85
2021/05/20 02:18:34;;;;;;;2.70;1.70;;;6.30;99.90;;;;;;4733573;30;20061;-85
2021/05/20 02:21:03;;;;;;;1.35;1.05;;;6.30;99.90;;;;;;4741687;30;20048;-84
2021/05/20 02:23:32;;;;;;;2.15;1.45;;;6.30;99.90;;;;;;4731097;30;20060;-83
2021/05/20 02:26:00;;;;;;;1.35;1.25;;;6.30;99.90;;;;;;4717010;30;20045;-84
2021/05/20 02:28:30;;;;;;;1.73;1.40;;;6.30;99.90;;;;;;4732392;30;20063;-85
2021/05/20 02:31:06;;;;;;;2.88;2.05;;;6.20;99.90;;;;;;4732169;30;20064;-86
2021/05/20 02:33:39;;;;;;;1.38;1.27;;;6.30;99.90;;;;;;4732419;30;20550;-85
2021/05/20 02:36:10;;;;;;;1.63;1.52;;;6.30;99.90;;;;;;4716162;30;20075;-85
2021/05/20 02:38:38;;;;;;;1.23;1.23;;;6.20;99.90;;;;;;4729323;30;20052;-84
2021/05/20 02:41:06;;;;;;;5.60;1.25;;;6.20;99.90;;;;;;4731445;30;20041;-83
2021/05/20 02:43:35;;;;;;;1.67;1.40;;;6.30;99.90;;;;;;4733090;30;20064;-82
2021/05/20 02:46:04;;;;;;;1.83;1.00;;;6.10;99.90;;;;;;4728814;30;20431;-84
2021/05/20 02:48:32;;;;;;;1.40;1.30;;;6.10;99.90;;;;;;4727850;30;20049;-85
2021/05/20 02:51:00;;;;;;;1.13;1.00;;;6.10;99.90;;;;;;4713173;30;20525;-83
2021/05/20 02:53:28;;;;;;;1.52;1.42;;;6.10;99.90;;;;;;4716340;30;20073;-82
2021/05/20 02:55:55;;;;;;;3.03;1.88;;;6.20;99.90;;;;;;4735818;30;20503;-82
2021/05/20 02:58:25;;;;;;;0.77;0.77;;;6.10;99.90;;;;;;4731818;30;20060;-82
2021/05/20 03:00:53;;;;;;;1.00;1.00;;;6.10;99.90;;;;;;4729607;30;20056;-82
2021/05/20 03:03:22;;;;;;;2.20;1.25;;;6.10;99.90;;;;;;4730611;30;20049;-82
2021/05/20 03:05:49;;;;;;;1.95;1.15;;;6.10;99.90;;;;;;4744926;30;20063;-82
2021/05/20 03:08:17;;;;;;;2.03;1.92;;;6.10;99.90;;;;;;4730384;30;20408;-84
2021/05/20 03:10:45;;;;;;;1.20;1.10;;;6.10;99.90;;;;;;4731932;30;20068;-82
2021/05/20 03:13:13;;;;;;;1.30;1.20;;;6.10;99.90;;;;;;4731822;30;20053;-83
2021/05/20 03:15:42;;;;;;;1.10;1.00;;;6.10;99.90;;;;;;4731531;30;20396;-84
2021/05/20 03:18:11;;;;;;;1.05;1.00;;;6.10;99.90;;;;;;4744574;30;20056;-83
2021/05/20 03:20:39;;;;;;;2.13;1.95;;;6.10;99.90;;;;;;4730838;30;20064;-82
2021/05/20 03:23:07;;;;;;;1.10;1.10;;;6.10;99.90;;;;;;4730445;30;20420;-82
2021/05/20 03:25:35;;;;;;;0.98;0.98;;;6.10;99.90;;;;;;4731390;30;20056;-83
2021/05/20 03:28:03;;;;;;;0.80;0.80;;;6.10;99.90;;;;;;4729709;30;20559;-83
2021/05/20 03:30:31;;;;;;;1.52;1.42;;;6.10;99.90;;;;;;4723716;30;20488;-82
2021/05/20 03:32:59;;;;;;;1.13;0.98;;;6.00;99.90;;;;;;4712029;30;20130;-84
2021/05/20 03:35:28;;;;;;;1.38;1.27;;;6.00;99.90;;;;;;4717665;30;20071;-83
2021/05/20 03:37:55;;;;;;;1.40;1.30;;;6.00;99.90;;;;;;4728319;30;20420;-82
2021/05/20 03:40:25;;;;;;;1.65;1.10;;;6.00;99.90;;;;;;4730047;30;20053;-82
2021/05/20 03:42:54;;;;;;;1.02;0.95;;;6.00;99.90;;;;;;4731528;30;20571;-82
2021/05/20 03:46:11;;;;;;;;;;;;;;;;;;;;;
2021/05/20 03:49:53;;;;;;;1.65;1.55;;;6.00;99.90;;;;;;4708522;30;20061;-89
2021/05/20 03:56:17;;;;;;;1.15;1.05;;;6.00;99.90;;;;;;4708877;30;20057;-90
2021/05/20 03:58:47;;;;;;;0.95;0.95;;;6.10;99.90;;;;;;4675792;30;20060;-89
2021/05/20 04:01:15;;;;;;;5.60;1.02;;;6.10;99.90;;;;;;4696374;30;20053;-87
2021/05/20 04:03:49;;;;;;;1.55;1.45;;;6.20;99.90;;;;;;4701561;30;20068;-87
2021/05/20 04:06:49;;;;;;;4.22;0.88;;;6.20;99.90;;;;;;4700856;30;20060;-89
2021/05/20 04:09:22;;;;;;;1.27;1.25;;;6.10;99.90;;;;;;4693554;30;20056;-90
2021/05/20 04:12:03;;;;;;;1.17;1.15;;;6.20;99.90;;;;;;4699755;30;20049;-89
2021/05/20 04:14:40;;;;;;;2.38;2.17;;;6.30;99.90;;;;;;4717385;30;20061;-88
2021/05/20 04:17:11;;;;;;;12.35;3.58;;;6.30;99.90;;;;;;4713584;30;20049;-89
2021/05/20 04:20:09;;;;;;;0.98;0.98;;;6.30;99.90;;;;;;4700879;30;20061;-88
2021/05/20 04:22:46;;;;;;;0.73;0.73;;;6.40;99.90;;;;;;4726007;30;20080;-91
2021/05/20 04:25:19;;;;;;;1.10;1.00;;;6.40;99.90;;;;;;4723561;30;20056;-90
2021/05/20 04:28:13;;;;;;;1.60;1.50;;;6.50;99.90;;;;;;4705211;30;20061;-89
2021/05/20 04:30:51;;;;;;;1.08;1.00;;;6.60;99.90;;;;;;4704209;30;20049;-89
2021/05/20 04:33:21;;;;;;;3.05;2.45;;;6.60;99.90;;;;;;4714320;30;20049;-83
2021/05/20 04:35:49;;;;;;;1.42;1.27;;;6.70;99.90;;;;;;4724737;30;20080;-83
2021/05/20 04:38:17;;;;;;;0.98;0.98;;;6.60;99.90;;;;;;4709771;30;20420;-82
2021/05/20 04:40:44;;;;;;;1.08;0.80;;;6.60;99.90;;;;;;4711323;30;20057;-83
2021/05/20 04:43:12;;;;;;;1.10;1.10;;;6.60;99.90;;;;;;4713729;30;20061;-82
2021/05/20 04:45:44;;;;;;;0.90;0.90;;;6.60;99.90;;;;;;4712942;30;20053;-82
2021/05/20 04:48:12;;;;;;;1.48;0.80;;;6.80;99.90;;;;;;4713520;30;20056;-84
2021/05/20 04:50:41;;;;;;;4.25;1.10;;;7.00;99.90;;;;;;4730549;30;20507;-81
2021/05/20 04:53:09;;;;;;;3.38;1.30;;;7.10;99.90;;;;;;4727333;30;20045;-77
2021/05/20 04:55:37;;;;;;;10.05;2.08;;;7.30;99.90;;;;;;4729218;30;20065;-82
2021/05/20 04:58:05;;;;;;;5.00;1.48;;;7.40;99.90;;;;;;4729221;30;20064;-81
2021/05/20 05:00:32;;;;;;;5.35;1.10;;;7.60;99.90;;;;;;4729323;30;20053;-80
2021/05/20 05:03:00;;;;;;;1.08;0.80;;;7.70;99.90;;;;;;4730524;30;20057;-84
2021/05/20 05:05:28;;;;;;;1.10;1.10;;;7.80;99.90;;;;;;4738658;30;20500;-82
2021/05/20 05:07:56;;;;;;;0.90;0.90;;;7.80;99.90;;;;;;4746447;30;20056;-82
2021/05/20 05:10:24;;;;;;;1.40;1.33;;;8.00;99.90;;;;;;4746886;30;20486;-85
2021/05/20 05:12:53;;;;;;;0.68;0.68;;;8.30;99.90;;;;;;4731648;30;20052;-84
2021/05/20 05:15:21;;;;;;;1.08;1.00;;;8.30;99.90;;;;;;4748047;30;20091;-82
2021/05/20 05:17:49;;;;;;;2.25;0.85;;;8.00;99.90;;;;;;4731304;30;20056;-81
2021/05/20 05:20:22;;;;;;;1.23;1.13;;;8.10;99.90;;;;;;4747155;30;20058;-85
2021/05/20 05:22:50;;;;;;;2.35;1.20;;;8.00;99.90;;;;;;4715217;30;20411;-83
2021/05/20 05:25:18;;;;;;;0.88;0.82;;;7.70;99.90;;;;;;4731817;30;20052;-81
2021/05/20 05:27:46;;;;;;;2.55;1.58;;;7.80;99.90;;;;;;4748127;30;20060;-83
2021/05/20 05:30:17;;;;;;;1.30;1.20;;;7.90;99.90;;;;;;4731764;30;20057;-82
2021/05/20 05:32:45;;;;;;;1.20;1.10;;;7.90;99.90;;;;;;4749906;30;20060;-82
2021/05/20 05:35:13;;;;;;;0.80;0.80;;;8.10;99.90;;;;;;4747939;30;20052;-83
2021/05/20 05:37:40;;;;;;;18.65;1.73;;;8.10;99.90;;;;;;4745016;30;20371;-83
2021/05/20 05:40:09;;;;;;;1.85;1.75;;;8.10;99.90;;;;;;4746515;30;20500;-82
2021/05/20 05:42:37;;;;;;;1.92;0.90;;;8.10;99.90;;;;;;4747553;30;20079;-83
2021/05/20 05:45:06;;;;;;;1.25;1.15;;;8.10;99.90;;;;;;4747289;30;20056;-83
2021/05/20 05:47:34;;;;;;;0.70;0.70;;;8.10;99.90;;;;;;4731630;30;20060;-83
2021/05/20 05:50:07;;;;;;;1.60;1.45;;;8.00;99.90;;;;;;4716036;30;20407;-82
2021/05/20 05:52:35;;;;;;;1.13;1.00;;;8.00;99.90;;;;;;4714888;30;20053;-85
2021/05/20 05:55:05;;;;;;;4.10;1.60;;;8.10;99.90;;;;;;4741464;30;20064;-83
2021/05/20 05:57:33;;;;;;;0.98;0.98;;;8.10;99.90;;;;;;4751010;30;20063;-81
2021/05/20 06:00:02;;;;;;;2.38;1.25;;;8.20;99.90;;;;;;4750176;30;20060;-82
2021/05/20 06:02:32;;;;;;;1.50;1.25;;;8.30;99.90;;;;;;4749733;30;20056;-83
2021/05/20 06:05:01;;;;;;;0.90;0.85;;;8.40;99.90;;;;;;4750384;30;20060;-82
2021/05/20 06:07:35;;;;;;;3.03;1.00;;;8.30;99.90;;;;;;4733504;30;20063;-83
2021/05/20 06:10:04;;;;;;;1.10;1.10;;;8.20;99.90;;;;;;4734804;30;20076;-82
2021/05/20 06:12:33;;;;;;;6.47;1.38;;;8.00;99.90;;;;;;4730836;30;20045;-82
2021/05/20 06:15:01;;;;;;;0.90;0.90;;;8.10;99.90;;;;;;4733284;30;20076;-82
2021/05/20 06:17:30;;;;;;;2.63;1.60;;;8.10;99.90;;;;;;4702913;30;20064;-82
2021/05/20 06:19:58;;;;;;;1.65;1.55;;;8.10;99.90;;;;;;4732426;30;20072;-83
2021/05/20 06:22:26;;;;;;;1.05;0.90;;;8.20;99.90;;;;;;4714264;30;20053;-82
2021/05/20 06:24:54;;;;;;;1.85;1.75;;;8.10;99.90;;;;;;4739066;30;20063;-84
2021/05/20 06:27:26;;;;;;;1.13;1.10;;;8.10;99.90;;;;;;4750839;30;20064;-82
2021/05/20 06:29:54;;;;;;;4.53;1.25;;;8.10;99.90;;;;;;4749596;30;20579;-83
2021/05/20 06:32:23;;;;;;;2.92;2.05;;;8.10;99.90;;;;;;4733890;30;20067;-83
2021/05/20 06:34:51;;;;;;;1.30;1.20;;;8.10;99.90;;;;;;4751709;30;20073;-81
2021/05/20 06:37:19;;;;;;;1.55;1.02;;;8.10;99.90;;;;;;4751135;30;20415;-84
2021/05/20 06:39:49;;;;;;;1.23;1.23;;;8.10;99.90;;;;;;4739688;30;20061;-85
2021/05/20 06:42:21;;;;;;;1.48;1.38;;;8.20;99.90;;;;;;4717517;30;20060;-84
2021/05/20 06:44:48;;;;;;;1.50;1.40;;;8.20;99.90;;;;;;4773971;24;20044;-85
2021/05/20 06:47:18;;;;;;;1.95;1.45;;;8.30;99.90;;;;;;4738846;30;20056;-83
2021/05/20 06:49:47;;;;;;;2.17;1.50;;;8.40;99.90;;;;;;4720445;30;20048;-82
2021/05/20 06:52:15;;;;;;;1.45;1.38;;;8.50;99.90;;;;;;4734668;30;20060;-83
2021/05/20 06:54:44;;;;;;;1.20;1.10;;;8.50;99.90;;;;;;4755916;30;20060;-84
2021/05/20 06:57:21;;;;;;;1.20;1.20;;;8.50;99.90;;;;;;4752992;30;20052;-84
2021/05/20 07:00:12;;;;;;;1.70;1.42;;;8.40;99.90;;;;;;4738667;30;20486;-85
2021/05/20 07:02:40;;;;;;;4.07;1.90;;;8.30;99.90;;;;;;4749885;30;20071;-82
2021/05/20 07:05:09;;;;;;;2.47;1.75;;;8.40;99.90;;;;;;4767265;30;20498;-83
2021/05/20 07:07:38;;;;;;;3.67;1.80;;;8.30;99.90;;;;;;4750251;30;20109;-82
2021/05/20 07:10:07;;;;;;;1.80;1.23;;;8.30;99.90;;;;;;4749070;30;20055;-77
2021/05/20 07:12:35;;;;;;;1.30;1.20;;;8.20;99.90;;;;;;4766317;30;20044;-76
2021/05/20 07:15:04;;;;;;;1.25;1.15;;;8.20;99.90;;;;;;4767543;30;20055;-76
2021/05/20 07:17:32;;;;;;;1.85;1.58;;;8.30;99.90;;;;;;4766625;30;20067;-75
2021/05/20 07:20:00;;;;;;;1.50;1.40;;;8.50;99.90;;;;;;4768756;30;20067;-76
2021/05/20 07:22:29;;;;;;;1.70;1.58;;;8.50;99.90;;;;;;4767402;30;20498;-76
2021/05/20 07:25:01;;;;;;;1.75;1.65;;;8.50;99.90;;;;;;4768284;30;20050;-74
2021/05/20 07:27:31;;;;;;;2.40;2.20;;;8.70;99.90;;;;;;4752987;30;20060;-75
2021/05/20 07:30:00;;;;;;;2.25;1.63;;;8.90;99.90;;;;;;4764350;30;20052;-76
2021/05/20 07:32:30;;;;;;;1.27;1.17;;;8.90;99.90;;;;;;4750201;30;20051;-75
2021/05/20 07:35:03;;;;;;;2.50;1.70;;;8.90;99.90;;;;;;4751449;30;20056;-76
2021/05/20 07:37:31;;;;;;;3.08;1.60;;;9.00;99.90;;;;;;4767718;30;20676;-75
2021/05/20 07:39:59;;;;;;;1.42;1.42;;;9.30;99.90;;;;;;4767972;30;20062;-76
2021/05/20 07:42:27;;;;;;;1.08;1.05;;;9.70;99.90;;;;;;4755749;29;20056;-76
2021/05/20 07:44:56;;;;;;;11.35;4.10;;;10.00;99.90;;;;;;4759934;30;20051;-77
2021/05/20 07:47:24;;;;;;;2.15;1.17;;;10.00;99.90;;;;;;4768638;30;20052;-76
2021/05/20 07:49:53;;;;;;;3.33;1.63;;;9.70;99.90;;;;;;4754538;30;20086;-76
2021/05/20 07:52:21;;;;;;;1.55;1.10;;;9.50;99.90;;;;;;4749834;30;20052;-79
2021/05/20 07:54:49;;;;;;;2.08;1.70;;;9.50;99.90;;;;;;4755974;30;20060;-76
2021/05/20 07:57:17;;;;;;;2.88;1.45;;;9.40;99.90;;;;;;4768118;30;20052;-77
2021/05/20 07:59:53;;;;;;;2.33;2.05;;;9.30;99.90;;;;;;4768432;30;20056;-76
2021/05/20 08:04:57;;;;;;;2.55;2.30;;;9.60;99.90;;;;;;4767911;30;20048;-77
2021/05/20 08:12:34;;;;;;;1.33;1.23;;;9.60;99.90;;;;;;4750098;30;20402;-75
2021/05/20 08:15:03;;;;;;;1.25;1.00;;;9.70;99.90;;;;;;4750501;30;20056;-76
2021/05/20 08:17:31;;;;;;;3.17;1.08;;;10.30;99.90;;;;;;4749680;30;20073;-76
2021/05/20 08:19:59;;;;;;;1.98;1.25;;;12.10;99.90;;;;;;4734070;30;20079;-76
2021/05/20 08:22:27;;;;;;;1.48;1.38;;;12.50;98.00;;;;;;4748631;30;20060;-78
2021/05/20 08:24:56;;;;;;;1.15;0.90;;;12.50;99.60;;;;;;4756453;30;20047;-77
2021/05/20 08:27:24;;;;;;;1.70;1.20;;;12.10;99.90;;;;;;4768048;30;20067;-78
2021/05/20 08:29:52;;;;;;;1.45;1.35;;;11.60;99.90;;;;;;4765960;30;20062;-76
2021/05/20 08:32:20;;;;;;;1.13;1.13;;;10.90;99.90;;;;;;4758963;30;20063;-78
2021/05/20 08:34:48;;;;;;;1.45;1.35;;;10.60;99.90;;;;;;4734174;30;20067;-76
2021/05/20 08:37:16;;;;;;;0.95;0.95;;;10.40;99.90;;;;;;4748783;30;20051;-76
2021/05/20 08:39:44;;;;;;;2.78;1.30;;;10.30;99.90;;;;;;4749266;30;20064;-77
2021/05/20 08:42:12;;;;;;;1.33;1.23;;;10.20;99.90;;;;;;4749079;30;20059;-77
2021/05/20 08:44:40;;;;;;;1.15;1.08;;;10.40;99.90;;;;;;4749335;30;20087;-77
2021/05/20 08:47:10;;;;;;;1.65;1.55;;;10.60;99.90;;;;;;4749722;30;20071;-77
2021/05/20 08:49:38;;;;;;;1.55;1.10;;;11.00;99.90;;;;;;4760940;30;20044;-83
2021/05/20 08:52:06;;;;;;;1.40;0.73;;;11.30;99.90;;;;;;4751034;30;20051;-85
2021/05/20 08:54:49;;;;;;;1.88;1.38;;;11.40;99.90;;;;;;4738969;30;20132;-79
2021/05/20 08:57:23;;;;;;;1.00;0.90;;;11.50;99.90;;;;;;4767136;30;20051;-80
2021/05/20 08:59:52;;;;;;;1.35;0.80;;;11.30;97.50;;;;;;4751615;30;20067;-78
2021/05/20 09:02:29;;;;;;;2.28;2.08;;;11.00;99.90;;;;;;4767069;30;20082;-80
2021/05/20 09:05:06;;;;;;;1.83;0.60;;;10.80;99.90;;;;;;4767335;30;20043;-78
2021/05/20 09:07:37;;;;;;;1.75;0.70;;;9.40;99.90;;;;;;4766971;30;20082;-79
2021/05/20 09:10:08;;;;;;;0.63;0.63;;;8.50;99.90;;;;;;4751043;30;20055;-78
2021/05/20 09:12:37;;;;;;;0.43;0.43;;;8.20;99.90;;;;;;4767235;30;20054;-79
2021/05/20 09:15:18;;;;;;;1.25;1.15;;;8.00;99.90;;;;;;4751199;30;20499;-78
2021/05/20 09:17:47;;;;;;;0.63;0.63;;;7.90;99.90;;;;;;4766925;30;20475;-78
2021/05/20 09:20:16;;;;;;;0.50;0.50;;;8.00;99.90;;;;;;4766572;30;20071;-78
2021/05/20 09:22:44;;;;;;;3.45;0.90;;;8.10;99.90;;;;;;4766706;30;20084;-78
2021/05/20 09:25:13;;;;;;;0.70;0.70;;;8.20;99.90;;;;;;4766505;30;20043;-78
2021/05/20 09:27:45;;;;;;;2.05;0.88;;;8.40;99.90;;;;;;4770884;30;20060;-78
2021/05/20 09:30:20;;;;;;;0.77;0.77;;;9.00;99.90;;;;;;4770098;30;20055;-79
2021/05/20 09:32:56;;;;;;;0.60;0.60;;;9.50;99.90;;;;;;4737853;30;20060;-79
2021/05/20 09:35:32;;;;;;;0.93;0.93;;;9.70;99.90;;;;;;4753200;30;20463;-79
2021/05/20 09:38:05;;;;;;;0.73;0.70;;;10.00;99.90;;;;;;4752144;30;20582;-79
2021/05/20 09:40:57;;;;;;;1.27;0.77;;;10.20;99.90;;;;;;4752306;30;20503;-79
2021/05/20 09:43:31;;;;;;;0.70;0.60;;;10.30;99.90;;;;;;4752670;30;20064;-79
2021/05/20 09:46:10;;;;;;;1.42;1.33;;;10.60;99.90;;;;;;4752264;30;20063;-78
2021/05/20 09:48:40;;;;;;;0.90;0.90;;;10.60;99.90;;;;;;4755940;30;20058;-78
2021/05/20 09:51:29;;;;;;;0.70;0.70;;;10.80;99.90;;;;;;4754369;30;20070;-79
2021/05/20 09:53:57;;;;;;;0.57;0.57;;;11.30;99.90;;;;;;4769490;30;20052;-78
2021/05/20 09:56:32;;;;;;;1.25;1.15;;;11.90;99.90;;;;;;4755454;30;20407;-78
2021/05/20 09:59:00;;;;;;;3.60;1.00;;;11.90;99.90;;;;;;4770751;30;20753;-79
2021/05/20 10:01:28;;;;;;;0.70;0.70;;;11.40;99.90;;;;;;4753941;30;20059;-79
2021/05/20 10:03:58;;;;;;;1.05;1.05;;;11.20;99.90;;;;;;4752011;30;20064;-80
2021/05/20 10:06:40;;;;;;;3.50;0.70;;;11.30;99.90;;;;;;4752189;30;20059;-79
2021/05/20 10:09:13;;;;;;;4.25;1.02;;;11.50;97.20;;;;;;4751228;30;20057;-78
2021/05/20 10:11:43;;;;;;;1.13;0.95;;;12.00;99.90;;;;;;4752186;30;20067;-78
2021/05/20 10:14:11;;;;;;;0.70;0.70;;;12.50;99.90;;;;;;4752106;30;20056;-78
2021/05/20 10:16:39;;;;;;;1.05;0.80;;;12.30;96.20;;;;;;4751808;30;20052;-78
2021/05/20 10:19:07;;;;;;;0.73;0.73;;;12.10;99.90;;;;;;4752175;30;20056;-79
2021/05/20 10:21:35;;;;;;;0.70;0.70;;;12.20;98.00;;;;;;4751603;30;20056;-79
2021/05/20 10:24:06;;;;;;;1.00;1.00;;;12.10;99.90;;;;;;4751467;30;20063;-78
2021/05/20 10:26:38;;;;;;;0.93;0.93;;;12.40;98.00;;;;;;4755826;30;20064;-82
2021/05/20 10:29:09;;;;;;;0.75;0.75;;;12.30;99.90;;;;;;4736085;30;20526;-81
2021/05/20 10:31:41;;;;;;;1.10;1.10;;;12.20;99.90;;;;;;4768888;30;20517;-82
2021/05/20 10:34:10;;;;;;;1.25;0.80;;;12.20;96.60;;;;;;4752808;30;20055;-80
2021/05/20 10:36:55;;;;;;;1.10;0.70;;;12.20;98.60;;;;;;4757251;30;20052;-84
2021/05/20 10:39:26;;;;;;;5.68;1.35;;;12.60;99.00;;;;;;4750759;30;20067;-80
2021/05/20 10:41:56;;;;;;;0.75;0.75;;;13.40;98.00;;;;;;4751508;30;20423;-80
2021/05/20 10:44:25;;;;;;;1.55;0.70;;;13.70;97.50;;;;;;4751780;30;20060;-81
2021/05/20 10:47:02;;;;;;;0.50;0.50;;;13.70;99.70;;;;;;4744193;30;20064;-79
2021/05/20 10:49:46;;;;;;;0.95;0.60;;;13.20;94.70;;;;;;4752911;30;20051;-83
2021/05/20 10:52:38;;;;;;;5.45;0.70;;;12.70;97.50;;;;;;4738276;30;20060;-82
2021/05/20 10:55:15;;;;;;;0.63;0.63;;;12.40;97.40;;;;;;4738302;30;20048;-78
2021/05/20 10:57:49;;;;;;;0.68;0.68;;;12.20;93.50;;;;;;4753398;30;20056;-78
2021/05/20 11:00:44;;;;;;;0.55;0.55;;;12.00;95.50;;;;;;4768662;30;20087;-83
2021/05/20 11:03:12;;;;;;;1.50;0.93;;;12.20;95.40;;;;;;4769065;30;20499;-80
2021/05/20 11:05:43;;;;;;;0.68;0.57;;;12.40;93.90;;;;;;4768976;30;20063;-83
2021/05/20 11:08:34;;;;;;;0.73;0.73;;;12.50;94.30;;;;;;4767719;30;20060;-80
2021/05/20 11:11:08;;;;;;;2.40;1.73;;;12.30;95.00;;;;;;4769179;30;20051;-84
2021/05/20 11:13:37;;;;;;;1.38;1.05;;;12.20;97.40;;;;;;4752972;30;20048;-82
2021/05/20 11:16:18;;;;;;;0.40;0.40;;;12.40;98.20;;;;;;4752385;30;20063;-81
2021/05/20 11:18:49;;;;;;;0.40;0.40;;;12.60;98.20;;;;;;4753226;30;20059;-81
2021/05/20 11:21:17;;;;;;;0.52;0.52;;;12.60;95.30;;;;;;4760793;30;20070;-80
2021/05/20 11:23:46;;;;;;;4.15;0.50;;;12.40;97.90;;;;;;4768434;30;20490;-83
2021/05/20 11:26:25;;;;;;;0.50;0.50;;;12.20;95.50;;;;;;4744077;30;20055;-81
2021/05/20 11:28:58;;;;;;;0.47;0.47;;;11.70;97.60;;;;;;4752843;30;20051;-82
2021/05/20 11:31:27;;;;;;;0.52;0.52;;;11.00;99.20;;;;;;4749531;30;20048;-79
2021/05/20 11:36:48;;;;;;;1.02;1.02;;;11.00;99.90;;;;;;4763362;30;20059;-81
2021/05/20 11:39:18;;;;;;;0.63;0.63;;;10.90;99.90;;;;;;4751931;30;20062;-85
2021/05/20 11:41:48;;;;;;;0.47;0.47;;;10.70;99.90;;;;;;4736619;30;20063;-78
2021/05/20 11:44:21;;;;;;;0.70;0.70;;;10.60;99.90;;;;;;4749237;30;20067;-81
2021/05/20 11:47:03;;;;;;;0.50;0.50;;;10.50;99.90;;;;;;4751024;30;20060;-80
2021/05/20 11:49:31;;;;;;;0.70;0.70;;;10.50;99.90;;;;;;4741024;30;20491;-80
2021/05/20 11:52:08;;;;;;;0.50;0.50;;;10.80;99.90;;;;;;4748288;30;20550;-81
2021/05/20 11:55:02;;;;;;;0.40;0.40;;;11.20;99.00;;;;;;4715142;30;20057;-83
2021/05/20 11:57:30;;;;;;;0.40;0.40;;;11.30;99.90;;;;;;4731574;30;20053;-81
2021/05/20 11:59:58;;;;;;;0.40;0.40;;;11.50;99.10;;;;;;4733263;30;20053;-82
2021/05/20 12:02:31;;;;;;;0.65;0.65;;;12.00;99.50;;;;;;4716680;30;20063;-80
2021/05/20 12:05:11;;;;;;;0.60;0.60;;;12.40;99.90;;;;;;4731318;30;20059;-83
2021/05/20 12:07:41;;;;;;;0.75;0.50;;;12.70;94.80;;;;;;4730772;30;20064;-82
2021/05/20 12:10:17;;;;;;;0.50;0.45;;;12.60;97.30;;;;;;4732952;30;20056;-81
2021/05/20 12:13:21;;;;;;;0.57;0.57;;;12.70;95.90;;;;;;4733724;30;20060;-84
2021/05/20 12:15:51;;;;;;;0.50;0.40;;;12.60;96.90;;;;;;4664335;30;20410;-85
2021/05/20 12:18:21;;;;;;;0.70;0.70;;;13.10;93.70;;;;;;4718148;30;20052;-83
2021/05/20 12:20:50;;;;;;;0.40;0.40;;;13.60;92.80;;;;;;4749304;30;20056;-88
2021/05/20 12:23:28;;;;;;;0.43;0.43;;;13.70;89.60;;;;;;4720110;30;20052;-83
2021/05/20 12:25:57;;;;;;;0.50;0.50;;;13.00;90.60;;;;;;4720436;30;20444;-83
2021/05/20 12:28:30;;;;;;;2.05;0.32;;;12.90;91.70;;;;;;4716948;30;20053;-83
2021/05/20 12:31:01;;;;;;;0.85;0.40;;;13.20;92.80;;;;;;4717280;30;20057;-82
2021/05/20 12:33:36;;;;;;;0.40;0.40;;;13.30;90.20;;;;;;4709971;30;20075;-82
2021/05/20 12:36:07;;;;;;;0.30;0.30;;;13.50;88.80;;;;;;4729201;30;20068;-81
2021/05/20 12:38:37;;;;;;;0.40;0.40;;;13.20;91.20;;;;;;4713268;30;20068;-82
2021/05/20 12:41:05;;;;;;;0.40;0.40;;;13.40;92.20;;;;;;4698532;30;20057;-84
2021/05/20 12:43:39;;;;;;;0.40;0.40;;;13.50;84.50;;;;;;4701567;30;20498;-82
2021/05/20 12:46:15;;;;;;;0.30;0.30;;;13.30;90.30;;;;;;4717677;30;20056;-82
2021/05/20 12:49:00;;;;;;;0.40;0.40;;;13.30;85.80;;;;;;4722802;30;20501;-83
2021/05/20 12:51:29;;;;;;;0.55;0.55;;;13.30;88.70;;;;;;4736865;30;20078;-81
2021/05/20 12:54:02;;;;;;;0.50;0.50;;;12.80;89.00;;;;;;4750282;30;20043;-83
2021/05/20 12:56:32;;;;;;;0.43;0.40;;;12.70;90.60;;;;;;4732472;30;20056;-81
2021/05/20 12:59:07;;;;;;;0.40;0.40;;;12.60;91.50;;;;;;4732562;30;20061;-81
2021/05/20 13:01:39;;;;;;;0.55;0.40;;;12.50;91.60;;;;;;4727137;30;20052;-83
2021/05/20 13:04:09;;;;;;;0.55;0.55;;;12.40;92.10;;;;;;4737791;30;20087;-82
2021/05/20 13:06:38;;;;;;;0.43;0.43;;;12.40;93.00;;;;;;4723635;30;20499;-82
2021/05/20 13:09:16;;;;;;;0.68;0.50;;;12.30;93.20;;;;;;4736430;30;20048;-86
2021/05/20 13:11:48;;;;;;;0.47;0.40;;;12.20;94.20;;;;;;4723362;30;20055;-82
2021/05/20 13:23:08;;;;;;;0.40;0.40;;;13.10;92.70;;;;;;4736369;30;20059;-84
2021/05/20 13:26:07;;;;;;;0.57;0.40;;;13.10;91.00;;;;;;4736531;30;20067;-83
2021/05/20 13:28:39;;;;;;;0.60;0.60;;;13.40;92.60;;;;;;4721377;30;20107;-86
2021/05/20 13:31:07;;;;;;;0.38;0.38;;;13.50;88.40;;;;;;4721237;30;20052;-85
2021/05/20 13:33:43;;;;;;;0.52;0.30;;;13.10;90.40;;;;;;4735736;30;20526;-86
2021/05/20 13:36:20;;;;;;;0.40;0.40;;;12.90;91.20;;;;;;4736325;30;20060;-83
2021/05/20 13:38:51;;;;;;;1.08;0.70;;;13.20;90.80;;;;;;4735556;30;20624;-83
2021/05/20 13:41:19;;;;;;;0.40;0.40;;;13.20;92.00;;;;;;4748773;30;20048;-87
2021/05/20 13:43:47;;;;;;;0.40;0.40;;;12.90;92.00;;;;;;4751899;30;20086;-86